Marv Dasht, Iran
Current Conditions -  °F | °C
As of 3:00 PM on Friday 28 Nov 2014 (Local Time) from OISS Reporting Station
Few Clouds Few Clouds  
Wind Chill: 61°   Ceiling: Unl
Heat Index: 61°   Visibility: 6mi
Dew Point: 34°   Wind: 9mph
Humidity: 36%   Direction: 80°E
Pressure: 30.06"   Gusts: NA
Location:  29.8°N, 52.83°E
Report Text: OISS 281100Z 08008KT 9999 FEW030 16/01 Q1018 A3007
Loading
Personal Weather Stations






























Interactive Weather Map New forecast layout! Learn more

10-Day Weather Forecast

Advertisements
Track Severe Weather on mobile